Time;durP1;ratioP1;P1;durP2;ratioP2;P2;SDS_P1;SDS_P2;PMS_P1;PMS_P2;Temp;Humidity;BMP_temperature;BMP_pressure;BME280_temperature;BME280_humidity;BME280_pressure;Samples;Min_cycle;Max_cycle;Signal;HPM_P1;HPM_P2
2023/09/03 00:01:57;;;;;;;4.47;2.40;;;;;;;;;;5044648;28;20735;-77
2023/09/03 00:04:23;;;;;;;3.97;2.70;;;;;;;;;;5044377;28;20279;-78
2023/09/03 00:06:49;;;;;;;6.30;3.00;;;;;;;;;;5045236;28;20179;-77
2023/09/03 00:09:16;;;;;;;5.10;2.90;;;;;;;;;;5028570;28;20202;-79
2023/09/03 00:11:43;;;;;;;3.23;2.70;;;;;;;;;;5043700;28;20185;-78
2023/09/03 00:14:09;;;;;;;5.03;2.83;;;;;;;;;;5043771;28;20189;-78
2023/09/03 00:16:35;;;;;;;8.27;2.80;;;;;;;;;;5029246;28;20188;-79
2023/09/03 00:19:01;;;;;;;5.07;3.30;;;;;;;;;;5043171;28;20316;-78
2023/09/03 00:21:27;;;;;;;4.03;2.87;;;;;;;;;;5047847;28;20267;-78
2023/09/03 00:23:53;;;;;;;2.87;2.67;;;;;;;;;;5013703;28;20186;-78
2023/09/03 00:26:21;;;;;;;2.83;2.57;;;;;;;;;;5039693;28;20184;-78
2023/09/03 00:28:54;;;;;;;3.17;2.87;;;;;;;;;;5051064;28;20219;-78
2023/09/03 00:31:23;;;;;;;4.03;2.70;;;;;;;;;;5010293;28;20182;-77
2023/09/03 00:33:49;;;;;;;4.73;2.90;;;;;;;;;;5012149;28;20186;-78
2023/09/03 00:36:16;;;;;;;3.03;2.73;;;;;;;;;;5053151;28;20194;-78
2023/09/03 00:38:42;;;;;;;3.93;2.73;;;;;;;;;;5030018;28;20193;-78
2023/09/03 00:41:08;;;;;;;3.93;2.80;;;;;;;;;;5023940;28;20221;-78
2023/09/03 00:43:34;;;;;;;3.30;2.63;;;;;;;;;;5042619;28;20189;-78
2023/09/03 00:46:03;;;;;;;3.37;2.30;;;;;;;;;;5043873;28;20673;-78
2023/09/03 00:48:29;;;;;;;3.67;2.20;;;;;;;;;;5032296;28;20201;-78
2023/09/03 00:50:57;;;;;;;3.03;2.40;;;;;;;;;;5035060;28;20232;-78
2023/09/03 00:53:24;;;;;;;3.43;2.40;;;;;;;;;;5048914;28;20245;-77
2023/09/03 00:55:50;;;;;;;3.90;2.50;;;;;;;;;;5031196;28;20190;-78
2023/09/03 00:58:16;;;;;;;3.27;2.40;;;;;;;;;;5046405;28;20185;-76
2023/09/03 01:00:42;;;;;;;2.57;2.23;;;;;;;;;;5051914;28;20292;-78
2023/09/03 01:03:09;;;;;;;3.53;2.10;;;;;;;;;;5033200;28;20178;-78
2023/09/03 01:05:35;;;;;;;2.30;2.10;;;;;;;;;;5035126;28;20185;-78
2023/09/03 01:08:02;;;;;;;2.60;2.10;;;;;;;;;;5054254;28;20200;-78
2023/09/03 01:10:47;;;;;;;3.07;2.20;;;;;;;;;;5047047;28;20550;-78
2023/09/03 01:13:36;;;;;;;3.47;2.80;;;;;;;;;;5030036;28;20189;-78
2023/09/03 01:16:07;;;;;;;6.23;3.00;;;;;;;;;;5052151;28;20672;-78
2023/09/03 01:18:33;;;;;;;3.30;2.77;;;;;;;;;;5034332;28;20185;-77
2023/09/03 01:21:16;;;;;;;4.07;2.90;;;;;;;;;;5046136;28;20213;-78
2023/09/03 01:23:59;;;;;;;3.20;2.63;;;;;;;;;;5037351;28;20231;-78
2023/09/03 01:26:33;;;;;;;3.97;2.60;;;;;;;;;;5035808;28;20221;-78
2023/09/03 01:29:00;;;;;;;4.03;2.60;;;;;;;;;;5005127;28;20190;-77
2023/09/03 01:31:26;;;;;;;3.30;3.00;;;;;;;;;;5016053;28;20187;-77
2023/09/03 01:34:01;;;;;;;5.60;3.10;;;;;;;;;;5019389;28;20189;-78
2023/09/03 01:36:28;;;;;;;3.10;2.80;;;;;;;;;;5033270;28;20201;-78
2023/09/03 01:38:54;;;;;;;4.73;2.90;;;;;;;;;;5046876;28;20178;-75
2023/09/03 01:41:21;;;;;;;4.10;2.70;;;;;;;;;;5037637;28;20218;-78
2023/09/03 01:43:47;;;;;;;4.80;2.57;;;;;;;;;;5007794;28;20179;-78
2023/09/03 01:46:16;;;;;;;4.70;2.67;;;;;;;;;;5042908;28;20611;-78
2023/09/03 01:48:52;;;;;;;4.63;3.00;;;;;;;;;;5010382;28;20273;-78
2023/09/03 01:51:27;;;;;;;4.23;2.57;;;;;;;;;;5038673;28;20202;-78
2023/09/03 01:54:02;;;;;;;3.07;2.27;;;;;;;;;;5032652;28;20341;-78
2023/09/03 01:56:30;;;;;;;3.97;2.97;;;;;;;;;;5015482;28;20190;-78
2023/09/03 01:58:59;;;;;;;5.37;2.60;;;;;;;;;;5015502;28;20178;-78
2023/09/03 02:01:30;;;;;;;3.90;2.50;;;;;;;;;;5017557;28;20206;-78
2023/09/03 02:03:57;;;;;;;4.57;2.97;;;;;;;;;;5032259;28;20189;-78
2023/09/03 02:06:23;;;;;;;5.87;2.80;;;;;;;;;;5036082;28;20268;-78
2023/09/03 02:08:51;;;;;;;4.23;2.90;;;;;;;;;;5033467;28;20193;-78
2023/09/03 02:11:17;;;;;;;3.40;2.60;;;;;;;;;;5031579;28;20257;-75
2023/09/03 02:13:43;;;;;;;3.43;2.63;;;;;;;;;;5038321;28;20212;-77
2023/09/03 02:16:09;;;;;;;4.60;3.03;;;;;;;;;;5032672;28;20552;-77
2023/09/03 02:18:35;;;;;;;4.87;2.70;;;;;;;;;;5019889;28;20665;-77
2023/09/03 02:21:01;;;;;;;2.93;2.50;;;;;;;;;;5031898;28;20254;-77
2023/09/03 02:23:28;;;;;;;3.23;2.50;;;;;;;;;;5034375;28;20178;-77
2023/09/03 02:26:03;;;;;;;4.60;2.70;;;;;;;;;;5015209;28;20217;-78
2023/09/03 02:28:29;;;;;;;2.77;2.57;;;;;;;;;;5030782;28;20193;-78
2023/09/03 02:30:56;;;;;;;4.27;3.30;;;;;;;;;;5034973;28;20209;-78
2023/09/03 02:33:22;;;;;;;4.10;2.80;;;;;;;;;;5016534;28;20219;-77
2023/09/03 02:35:49;;;;;;;3.37;2.90;;;;;;;;;;5021584;28;20182;-78
2023/09/03 02:38:15;;;;;;;3.97;2.97;;;;;;;;;;5020681;28;20213;-78
2023/09/03 02:40:41;;;;;;;3.80;3.10;;;;;;;;;;5029878;28;20218;-78
2023/09/03 02:43:07;;;;;;;4.93;3.07;;;;;;;;;;5033873;28;20179;-78
2023/09/03 02:45:33;;;;;;;3.93;3.10;;;;;;;;;;5039725;28;20649;-78
2023/09/03 02:47:59;;;;;;;4.77;2.90;;;;;;;;;;5017114;28;20186;-78
2023/09/03 02:50:26;;;;;;;4.30;3.10;;;;;;;;;;5014058;28;20217;-78
2023/09/03 02:52:52;;;;;;;4.40;2.80;;;;;;;;;;5018979;28;20195;-77
2023/09/03 02:55:18;;;;;;;5.77;2.60;;;;;;;;;;5033829;28;20208;-78
2023/09/03 02:57:44;;;;;;;3.70;2.90;;;;;;;;;;5018442;28;20277;-75
2023/09/03 03:00:11;;;;;;;4.37;2.87;;;;;;;;;;5017368;28;20214;-77
2023/09/03 03:02:37;;;;;;;2.77;2.40;;;;;;;;;;5038613;28;20285;-76
2023/09/03 03:05:03;;;;;;;2.60;2.40;;;;;;;;;;5017535;28;20189;-78
2023/09/03 03:07:30;;;;;;;3.97;3.00;;;;;;;;;;5035743;28;20189;-78
2023/09/03 03:09:56;;;;;;;3.60;2.67;;;;;;;;;;5039145;28;20362;-78
2023/09/03 03:12:22;;;;;;;5.33;2.60;;;;;;;;;;5039985;28;20275;-78
2023/09/03 03:14:49;;;;;;;4.60;2.87;;;;;;;;;;5033065;28;20191;-76
2023/09/03 03:17:15;;;;;;;2.90;2.60;;;;;;;;;;5000425;28;20179;-78
2023/09/03 03:19:42;;;;;;;3.57;2.60;;;;;;;;;;5014930;28;20217;-78
2023/09/03 03:22:08;;;;;;;5.90;3.20;;;;;;;;;;5020954;28;20202;-78
2023/09/03 03:24:34;;;;;;;3.30;2.80;;;;;;;;;;5024724;28;20270;-77
2023/09/03 03:27:01;;;;;;;4.10;2.80;;;;;;;;;;4998149;28;20182;-77
2023/09/03 03:29:28;;;;;;;4.23;3.13;;;;;;;;;;5031618;28;20194;-77
2023/09/03 03:31:54;;;;;;;3.37;2.90;;;;;;;;;;5019738;28;20288;-75
2023/09/03 03:34:20;;;;;;;3.10;2.80;;;;;;;;;;5031652;28;20235;-78
2023/09/03 03:36:49;;;;;;;3.50;3.20;;;;;;;;;;5045400;28;20186;-78
2023/09/03 03:39:15;;;;;;;2.60;2.40;;;;;;;;;;5040292;28;20732;-77
2023/09/03 03:41:42;;;;;;;5.00;2.60;;;;;;;;;;5053710;28;21355;-76
2023/09/03 03:44:13;;;;;;;3.97;2.90;;;;;;;;;;5041046;28;20178;-74
2023/09/03 03:46:39;;;;;;;3.83;2.70;;;;;;;;;;5049325;28;20231;-77
2023/09/03 03:49:06;;;;;;;3.40;2.70;;;;;;;;;;5037226;28;20205;-77
2023/09/03 03:51:32;;;;;;;2.83;2.47;;;;;;;;;;5039947;28;20186;-76
2023/09/03 03:54:02;;;;;;;3.80;2.57;;;;;;;;;;5043788;28;20178;-77
2023/09/03 03:56:29;;;;;;;3.83;2.70;;;;;;;;;;5046615;28;20190;-75
2023/09/03 03:58:56;;;;;;;2.83;2.63;;;;;;;;;;5029618;28;20186;-75
2023/09/03 04:01:25;;;;;;;3.43;2.80;;;;;;;;;;4995104;28;20219;-77
2023/09/03 04:03:54;;;;;;;4.50;3.40;;;;;;;;;;5034089;28;20541;-77
2023/09/03 04:06:21;;;;;;;4.23;2.80;;;;;;;;;;5035727;28;20175;-76
2023/09/03 04:08:47;;;;;;;3.23;2.70;;;;;;;;;;5047285;28;20207;-77
2023/09/03 04:11:14;;;;;;;4.93;2.63;;;;;;;;;;5044811;28;20686;-78
2023/09/03 04:13:40;;;;;;;4.20;2.80;;;;;;;;;;5019051;28;20349;-78
2023/09/03 04:16:13;;;;;;;5.90;3.03;;;;;;;;;;5030425;28;20246;-76
2023/09/03 04:18:41;;;;;;;4.87;2.97;;;;;;;;;;5045171;28;20190;-78
2023/09/03 04:21:07;;;;;;;3.10;2.67;;;;;;;;;;5045975;28;20221;-77
2023/09/03 04:23:34;;;;;;;3.60;3.30;;;;;;;;;;5038046;28;20269;-77
2023/09/03 04:26:02;;;;;;;4.00;3.00;;;;;;;;;;5040470;28;20186;-78
2023/09/03 04:28:30;;;;;;;4.43;3.20;;;;;;;;;;5040496;28;20178;-78
2023/09/03 04:30:59;;;;;;;4.30;3.13;;;;;;;;;;5037061;28;20198;-77
2023/09/03 04:33:25;;;;;;;3.97;3.00;;;;;;;;;;5021280;28;20185;-78
2023/09/03 04:35:56;;;;;;;3.57;2.90;;;;;;;;;;5007448;28;20641;-77
2023/09/03 04:38:23;;;;;;;4.70;3.10;;;;;;;;;;5027169;28;20213;-78
2023/09/03 04:40:49;;;;;;;4.10;2.90;;;;;;;;;;5045813;28;20208;-78
2023/09/03 04:43:16;;;;;;;3.70;2.93;;;;;;;;;;5019760;28;20274;-78
2023/09/03 04:45:47;;;;;;;3.93;3.47;;;;;;;;;;5044063;28;20190;-77
2023/09/03 04:48:14;;;;;;;4.10;3.50;;;;;;;;;;5038886;28;20278;-78
2023/09/03 04:50:40;;;;;;;5.10;3.90;;;;;;;;;;5007102;28;20697;-78
2023/09/03 04:53:07;;;;;;;5.13;3.77;;;;;;;;;;5022186;28;20174;-76
2023/09/03 04:55:33;;;;;;;5.13;3.43;;;;;;;;;;5041342;28;20269;-77
2023/09/03 04:57:59;;;;;;;4.10;3.67;;;;;;;;;;5043731;28;20182;-77
2023/09/03 05:00:26;;;;;;;3.77;3.43;;;;;;;;;;5010984;28;20194;-77
2023/09/03 05:02:52;;;;;;;5.27;3.30;;;;;;;;;;5045457;28;20553;-78
2023/09/03 05:05:18;;;;;;;4.00;3.60;;;;;;;;;;5026016;28;20206;-78
2023/09/03 05:07:47;;;;;;;4.77;3.67;;;;;;;;;;5039005;28;20250;-77
2023/09/03 05:10:14;;;;;;;3.87;3.37;;;;;;;;;;5027259;28;20229;-78
2023/09/03 05:12:41;;;;;;;4.17;3.60;;;;;;;;;;5008516;28;20879;-75
2023/09/03 05:15:12;;;;;;;3.40;3.10;;;;;;;;;;5045118;28;20190;-77
2023/09/03 05:17:39;;;;;;;3.97;3.43;;;;;;;;;;5028148;28;20194;-77
2023/09/03 05:20:06;;;;;;;5.77;3.53;;;;;;;;;;5039220;28;20661;-76
2023/09/03 05:22:33;;;;;;;3.97;3.57;;;;;;;;;;5025344;28;20255;-78
2023/09/03 05:24:59;;;;;;;4.47;3.30;;;;;;;;;;5039841;28;20186;-77
2023/09/03 05:27:29;;;;;;;4.90;3.37;;;;;;;;;;5045327;28;20174;-77
2023/09/03 05:29:55;;;;;;;3.80;3.33;;;;;;;;;;5035997;28;20206;-76
2023/09/03 05:32:21;;;;;;;4.20;3.13;;;;;;;;;;5047269;28;20355;-77
2023/09/03 05:34:47;;;;;;;4.23;3.63;;;;;;;;;;5020346;28;20273;-77
2023/09/03 05:37:13;;;;;;;3.63;3.10;;;;;;;;;;5009870;28;20185;-77
2023/09/03 05:39:39;;;;;;;3.73;3.30;;;;;;;;;;5019186;28;20607;-77
2023/09/03 05:42:05;;;;;;;5.80;3.60;;;;;;;;;;5041074;28;20292;-77
2023/09/03 05:44:32;;;;;;;5.53;3.30;;;;;;;;;;5043440;28;20190;-76
2023/09/03 05:46:58;;;;;;;4.63;3.20;;;;;;;;;;5026538;28;20181;-76
2023/09/03 05:49:24;;;;;;;6.43;3.40;;;;;;;;;;5004404;28;1024831;-77
2023/09/03 05:51:51;;;;;;;4.40;3.23;;;;;;;;;;5023123;28;20218;-77
2023/09/03 05:54:17;;;;;;;3.87;3.37;;;;;;;;;;5025211;28;20198;-77
2023/09/03 05:56:43;;;;;;;4.73;3.37;;;;;;;;;;5043650;28;20251;-77
2023/09/03 05:59:10;;;;;;;4.37;3.53;;;;;;;;;;5047627;28;20217;-77
2023/09/03 06:01:37;;;;;;;3.10;2.80;;;;;;;;;;5033519;28;20257;-77
2023/09/03 06:04:06;;;;;;;5.23;3.40;;;;;;;;;;5027078;28;20239;-77
2023/09/03 06:06:38;;;;;;;4.50;3.40;;;;;;;;;;5013327;28;20209;-78
2023/09/03 06:09:08;;;;;;;3.70;3.40;;;;;;;;;;5041254;28;20206;-74
2023/09/03 06:11:35;;;;;;;4.00;3.60;;;;;;;;;;5043501;28;20198;-77
2023/09/03 06:14:01;;;;;;;5.00;3.60;;;;;;;;;;5015907;28;20272;-78
2023/09/03 06:16:28;;;;;;;5.23;3.77;;;;;;;;;;5040176;28;20177;-80
2023/09/03 06:18:54;;;;;;;5.83;3.73;;;;;;;;;;5034994;28;20686;-77
2023/09/03 06:21:20;;;;;;;4.13;3.60;;;;;;;;;;5044106;28;20232;-80
2023/09/03 06:23:47;;;;;;;4.10;3.67;;;;;;;;;;5013541;28;20329;-81
2023/09/03 06:26:14;;;;;;;5.33;3.60;;;;;;;;;;5018073;28;20183;-82
2023/09/03 06:28:40;;;;;;;6.70;3.90;;;;;;;;;;5013894;28;20555;-81
2023/09/03 06:31:06;;;;;;;7.40;4.27;;;;;;;;;;5023359;28;20281;-82
2023/09/03 06:33:32;;;;;;;5.90;3.77;;;;;;;;;;5032512;28;20186;-82
2023/09/03 06:35:58;;;;;;;6.17;3.83;;;;;;;;;;5015686;28;20765;-82
2023/09/03 06:38:25;;;;;;;4.27;3.77;;;;;;;;;;5033552;28;20553;-82
2023/09/03 06:40:51;;;;;;;4.83;3.97;;;;;;;;;;5010616;28;20217;-82
2023/09/03 06:43:17;;;;;;;5.00;3.40;;;;;;;;;;5032883;28;20201;-81
2023/09/03 06:45:43;;;;;;;5.87;3.57;;;;;;;;;;5015357;28;20186;-81
2023/09/03 06:48:10;;;;;;;3.97;3.30;;;;;;;;;;5015081;28;20202;-82
2023/09/03 06:50:36;;;;;;;8.47;3.60;;;;;;;;;;5031836;28;20284;-80
2023/09/03 06:53:02;;;;;;;5.27;3.87;;;;;;;;;;5032710;28;20567;-80
2023/09/03 06:55:28;;;;;;;4.00;3.20;;;;;;;;;;5005037;28;20218;-77
2023/09/03 06:57:54;;;;;;;3.30;2.83;;;;;;;;;;5013851;28;20524;-78
2023/09/03 07:00:20;;;;;;;5.43;3.10;;;;;;;;;;5010341;28;20666;-78
2023/09/03 07:02:47;;;;;;;3.90;2.97;;;;;;;;;;5033901;28;20291;-79
2023/09/03 07:05:14;;;;;;;3.60;2.77;;;;;;;;;;5040091;28;20193;-80
2023/09/03 07:07:40;;;;;;;5.80;3.40;;;;;;;;;;5007937;28;20329;-80
2023/09/03 07:10:06;;;;;;;3.87;2.67;;;;;;;;;;5023403;28;20875;-80
2023/09/03 07:12:33;;;;;;;5.90;3.20;;;;;;;;;;5021288;28;20278;-80
2023/09/03 07:14:59;;;;;;;3.27;2.63;;;;;;;;;;5039782;28;20222;-81
2023/09/03 07:17:25;;;;;;;4.70;2.60;;;;;;;;;;5045559;28;20194;-80
2023/09/03 07:19:55;;;;;;;3.90;3.40;;;;;;;;;;5017586;28;20209;-80
2023/09/03 07:22:21;;;;;;;4.10;2.90;;;;;;;;;;5035879;28;20202;-82
2023/09/03 07:24:47;;;;;;;4.43;3.00;;;;;;;;;;5030309;28;20176;-84
2023/09/03 07:27:13;;;;;;;3.50;2.87;;;;;;;;;;5020741;28;20185;-85
2023/09/03 07:29:39;;;;;;;3.67;3.10;;;;;;;;;;5023026;28;20290;-85
2023/09/03 07:32:06;;;;;;;6.40;2.70;;;;;;;;;;5010146;28;20221;-85
2023/09/03 07:34:32;;;;;;;6.23;3.30;;;;;;;;;;5012768;28;20191;-85
2023/09/03 07:36:58;;;;;;;4.60;3.10;;;;;;;;;;5007528;28;20190;-85
2023/09/03 07:39:24;;;;;;;3.77;2.90;;;;;;;;;;5008953;28;20207;-79
2023/09/03 07:41:50;;;;;;;4.17;3.10;;;;;;;;;;5031347;28;20210;-82
2023/09/03 07:44:16;;;;;;;5.43;3.67;;;;;;;;;;5027798;28;20669;-83
2023/09/03 07:46:42;;;;;;;6.80;3.00;;;;;;;;;;5034131;28;20190;-80
2023/09/03 07:49:08;;;;;;;5.07;3.27;;;;;;;;;;5030654;28;20201;-83
2023/09/03 07:51:34;;;;;;;3.23;2.93;;;;;;;;;;5026379;28;20191;-77
2023/09/03 07:54:01;;;;;;;3.47;3.17;;;;;;;;;;5032339;28;20644;-82
2023/09/03 07:56:27;;;;;;;3.97;3.60;;;;;;;;;;5029567;28;20201;-80
2023/09/03 07:58:53;;;;;;;3.97;3.63;;;;;;;;;;5027708;28;20187;-80
2023/09/03 08:01:19;;;;;;;5.43;3.40;;;;;;;;;;5013495;28;20280;-82
2023/09/03 08:03:46;;;;;;;4.20;3.67;;;;;;;;;;5018672;28;20191;-82
2023/09/03 08:06:13;;;;;;;6.07;3.80;;;;;;;;;;5011074;28;20190;-82
2023/09/03 08:08:39;;;;;;;3.97;3.60;;;;;;;;;;5015523;28;20190;-82
2023/09/03 08:11:06;;;;;;;5.17;3.37;;;;;;;;;;4992801;28;20203;-83
2023/09/03 08:13:32;;;;;;;5.03;3.10;;;;;;;;;;5015984;28;20273;-83
2023/09/03 08:15:58;;;;;;;5.77;3.53;;;;;;;;;;5035589;28;20178;-82
2023/09/03 08:18:24;;;;;;;4.03;3.20;;;;;;;;;;5007832;28;20195;-80
2023/09/03 08:20:50;;;;;;;3.50;3.20;;;;;;;;;;5029052;28;20628;-78
2023/09/03 08:23:18;;;;;;;3.57;2.97;;;;;;;;;;5026144;28;20205;-75
2023/09/03 08:25:44;;;;;;;5.53;2.90;;;;;;;;;;5031640;28;20265;-81
2023/09/03 08:28:11;;;;;;;3.03;2.80;;;;;;;;;;5008521;28;20257;-80
2023/09/03 08:30:38;;;;;;;4.53;3.37;;;;;;;;;;5019251;28;20220;-80
2023/09/03 08:33:04;;;;;;;3.80;2.90;;;;;;;;;;5058314;28;20250;-79
2023/09/03 08:35:30;;;;;;;3.77;3.13;;;;;;;;;;5058022;28;20250;-78
2023/09/03 08:37:57;;;;;;;3.47;3.00;;;;;;;;;;5059037;28;20171;-78
2023/09/03 08:40:24;;;;;;;3.20;2.90;;;;;;;;;;5023129;28;20222;-80
2023/09/03 08:42:50;;;;;;;2.90;2.70;;;;;;;;;;5031275;28;20206;-80
2023/09/03 08:45:17;;;;;;;5.23;3.13;;;;;;;;;;5029203;28;20182;-80
2023/09/03 08:47:44;;;;;;;4.03;2.80;;;;;;;;;;5045742;28;20177;-80
2023/09/03 08:50:21;;;;;;;2.80;2.60;;;;;;;;;;5047682;28;20209;-79
2023/09/03 08:52:47;;;;;;;3.83;2.60;;;;;;;;;;5045850;28;20555;-80
2023/09/03 08:55:14;;;;;;;3.10;2.90;;;;;;;;;;5047132;28;20207;-80
2023/09/03 08:57:40;;;;;;;2.60;2.40;;;;;;;;;;5047607;28;20195;-79
2023/09/03 09:00:07;;;;;;;3.70;2.40;;;;;;;;;;5036627;28;20280;-79
2023/09/03 09:02:35;;;;;;;4.63;2.30;;;;;;;;;;5036436;28;20210;-79
2023/09/03 09:05:02;;;;;;;4.93;2.40;;;;;;;;;;5040320;28;20406;-80
2023/09/03 09:07:28;;;;;;;3.10;2.80;;;;;;;;;;5016031;28;20198;-80
2023/09/03 09:09:58;;;;;;;3.33;2.47;;;;;;;;;;5020265;28;20532;-79
2023/09/03 09:12:33;;;;;;;3.13;2.27;;;;;;;;;;5035460;28;20195;-79
2023/09/03 09:14:59;;;;;;;2.60;2.30;;;;;;;;;;5045365;28;20221;-80
2023/09/03 09:17:25;;;;;;;2.70;2.37;;;;;;;;;;5035300;28;20179;-80
2023/09/03 09:19:51;;;;;;;3.53;2.80;;;;;;;;;;5035873;28;20678;-79
2023/09/03 09:22:18;;;;;;;5.03;2.97;;;;;;;;;;5040830;28;20665;-80
2023/09/03 09:24:45;;;;;;;5.20;3.00;;;;;;;;;;5042672;28;20251;-80
2023/09/03 09:27:15;;;;;;;4.37;2.70;;;;;;;;;;5033269;28;20214;-80
2023/09/03 09:29:41;;;;;;;3.40;2.50;;;;;;;;;;5021416;28;20195;-78
2023/09/03 09:32:25;;;;;;;3.10;2.80;;;;;;;;;;5015721;28;20199;-80
2023/09/03 09:34:51;;;;;;;2.50;2.30;;;;;;;;;;5034253;28;20273;-80
2023/09/03 09:37:18;;;;;;;3.20;2.40;;;;;;;;;;5039981;28;20199;-80
2023/09/03 09:39:44;;;;;;;3.03;2.50;;;;;;;;;;5040973;28;20425;-80
2023/09/03 09:42:13;;;;;;;2.90;2.10;;;;;;;;;;5040359;28;20208;-77
2023/09/03 09:44:59;;;;;;;3.07;2.17;;;;;;;;;;5041158;28;20180;-80
2023/09/03 09:47:27;;;;;;;3.47;2.30;;;;;;;;;;5028998;28;20178;-80
2023/09/03 09:49:53;;;;;;;3.60;2.53;;;;;;;;;;5032947;28;20300;-80
2023/09/03 09:52:19;;;;;;;4.37;2.40;;;;;;;;;;5054063;22;20800;-79
2023/09/03 09:54:47;;;;;;;3.20;2.43;;;;;;;;;;5045465;28;20551;-79
2023/09/03 09:57:14;;;;;;;3.87;2.20;;;;;;;;;;5046392;28;20207;-78
2023/09/03 09:59:44;;;;;;;2.60;2.40;;;;;;;;;;5040984;28;20184;-78
2023/09/03 10:02:14;;;;;;;2.60;2.40;;;;;;;;;;5045292;28;20227;-78
2023/09/03 10:04:44;;;;;;;3.10;2.33;;;;;;;;;;5039356;28;20204;-78
2023/09/03 10:07:11;;;;;;;4.20;2.30;;;;;;;;;;5043890;28;20196;-78
2023/09/03 10:09:41;;;;;;;3.53;2.57;;;;;;;;;;5038574;28;20232;-78
2023/09/03 10:12:09;;;;;;;4.77;2.50;;;;;;;;;;5053337;28;20216;-78
2023/09/03 10:14:35;;;;;;;2.63;2.30;;;;;;;;;;5037126;28;20662;-78
2023/09/03 10:17:02;;;;;;;2.43;2.23;;;;;;;;;;5039757;28;20672;-79
2023/09/03 10:19:36;;;;;;;2.50;2.30;;;;;;;;;;5042319;28;20607;-79
2023/09/03 10:22:03;;;;;;;2.77;2.37;;;;;;;;;;5033727;28;20216;-79
2023/09/03 10:24:30;;;;;;;2.43;2.23;;;;;;;;;;5035820;28;20177;-78
2023/09/03 10:26:57;;;;;;;2.63;2.40;;;;;;;;;;5036007;28;20181;-79
2023/09/03 10:29:25;;;;;;;2.67;2.47;;;;;;;;;;5056047;28;20175;-79
2023/09/03 10:31:52;;;;;;;2.60;2.40;;;;;;;;;;5029976;28;20216;-78
2023/09/03 10:34:19;;;;;;;3.23;2.60;;;;;;;;;;5028390;28;20209;-78
2023/09/03 10:37:04;;;;;;;3.40;2.80;;;;;;;;;;5029653;28;20209;-79
2023/09/03 10:39:31;;;;;;;3.80;3.10;;;;;;;;;;5028036;28;20269;-80
2023/09/03 10:42:16;;;;;;;3.23;2.93;;;;;;;;;;5019652;28;20240;-78
2023/09/03 10:44:42;;;;;;;2.90;2.60;;;;;;;;;;4997853;28;20202;-77
2023/09/03 10:47:10;;;;;;;2.77;2.57;;;;;;;;;;5025251;28;20776;-79
2023/09/03 10:49:40;;;;;;;3.60;3.30;;;;;;;;;;4991036;28;20192;-81
2023/09/03 10:52:25;;;;;;;4.40;3.10;;;;;;;;;;5018400;28;20219;-78
2023/09/03 10:55:11;;;;;;;3.40;3.00;;;;;;;;;;5019777;28;20214;-78
2023/09/03 10:57:37;;;;;;;3.20;2.90;;;;;;;;;;5012495;28;20669;-77
2023/09/03 11:00:07;;;;;;;3.43;3.13;;;;;;;;;;5012131;28;20539;-77
2023/09/03 11:02:34;;;;;;;3.03;2.83;;;;;;;;;;5020814;28;20231;-78
2023/09/03 11:05:12;;;;;;;3.60;3.30;;;;;;;;;;5014966;28;20185;-77
2023/09/03 11:07:39;;;;;;;3.50;3.20;;;;;;;;;;5011153;28;20195;-78
2023/09/03 11:10:21;;;;;;;3.20;3.00;;;;;;;;;;5020160;28;20666;-78
2023/09/03 11:12:47;;;;;;;4.70;3.47;;;;;;;;;;5024135;28;20237;-78
2023/09/03 11:15:17;;;;;;;3.17;2.97;;;;;;;;;;5018232;28;20264;-78
2023/09/03 11:17:53;;;;;;;3.20;3.00;;;;;;;;;;5019652;28;20325;-78
2023/09/03 11:20:28;;;;;;;3.17;2.97;;;;;;;;;;5017687;28;20178;-78
2023/09/03 11:22:58;;;;;;;3.50;3.10;;;;;;;;;;5021318;28;20228;-78
2023/09/03 11:25:35;;;;;;;4.07;3.03;;;;;;;;;;5021423;28;20212;-78
2023/09/03 11:28:01;;;;;;;3.70;3.40;;;;;;;;;;5021810;28;20670;-79
2023/09/03 11:30:28;;;;;;;3.60;3.30;;;;;;;;;;5030818;28;20171;-79
2023/09/03 11:32:55;;;;;;;3.37;2.77;;;;;;;;;;5024039;28;20542;-77
2023/09/03 11:35:21;;;;;;;3.67;3.20;;;;;;;;;;5024705;28;20288;-78
2023/09/03 11:37:48;;;;;;;3.60;3.13;;;;;;;;;;5021911;28;20186;-79
2023/09/03 11:40:14;;;;;;;3.27;3.07;;;;;;;;;;5018940;28;20264;-79
2023/09/03 11:42:42;;;;;;;3.87;3.30;;;;;;;;;;5017852;28;20873;-78
2023/09/03 11:45:09;;;;;;;3.50;3.20;;;;;;;;;;5027690;28;20189;-80
2023/09/03 11:47:39;;;;;;;2.97;2.77;;;;;;;;;;5018047;28;20278;-79
2023/09/03 11:50:10;;;;;;;2.93;2.73;;;;;;;;;;5014949;28;20215;-78
2023/09/03 11:52:36;;;;;;;3.03;2.80;;;;;;;;;;5005803;28;20222;-78
2023/09/03 11:55:03;;;;;;;3.23;2.97;;;;;;;;;;5017600;28;20191;-79
2023/09/03 11:57:30;;;;;;;3.33;3.03;;;;;;;;;;5017487;28;20567;-77
2023/09/03 11:59:56;;;;;;;3.33;2.90;;;;;;;;;;5002375;28;20199;-78
2023/09/03 12:02:23;;;;;;;2.83;2.63;;;;;;;;;;5009816;28;20230;-80
2023/09/03 12:04:49;;;;;;;2.73;2.53;;;;;;;;;;5026770;28;20203;-79
2023/09/03 12:07:16;;;;;;;3.10;2.60;;;;;;;;;;5022215;28;20186;-79
2023/09/03 12:09:43;;;;;;;3.00;2.80;;;;;;;;;;5024168;28;20189;-79
2023/09/03 12:12:09;;;;;;;3.17;2.80;;;;;;;;;;5022876;28;20239;-78
2023/09/03 12:14:36;;;;;;;2.80;2.60;;;;;;;;;;5010730;28;20193;-80
2023/09/03 12:17:02;;;;;;;3.10;2.90;;;;;;;;;;5029117;28;20195;-80
2023/09/03 12:19:40;;;;;;;2.47;2.30;;;;;;;;;;5008941;28;20187;-79
2023/09/03 12:22:07;;;;;;;2.80;2.53;;;;;;;;;;5024327;28;20726;-80
2023/09/03 12:24:33;;;;;;;2.90;2.70;;;;;;;;;;5025900;28;20253;-81
2023/09/03 12:27:04;;;;;;;3.00;2.80;;;;;;;;;;5022829;28;20261;-80
2023/09/03 12:29:38;;;;;;;2.80;2.60;;;;;;;;;;5004713;28;20223;-79
2023/09/03 12:32:04;;;;;;;2.90;2.70;;;;;;;;;;5000830;28;20209;-80
2023/09/03 12:34:38;;;;;;;2.87;2.60;;;;;;;;;;5015676;28;20268;-82
2023/09/03 12:37:05;;;;;;;3.00;2.80;;;;;;;;;;5007347;28;20195;-79
2023/09/03 12:39:31;;;;;;;2.93;2.73;;;;;;;;;;5023120;28;20192;-80
2023/09/03 12:41:58;;;;;;;2.80;2.60;;;;;;;;;;5022852;28;20218;-79
2023/09/03 12:44:26;;;;;;;3.90;2.60;;;;;;;;;;5018994;28;20547;-77
2023/09/03 12:46:52;;;;;;;2.60;2.40;;;;;;;;;;5025854;28;20180;-80
2023/09/03 12:49:18;;;;;;;3.10;2.80;;;;;;;;;;5023313;28;20184;-80
2023/09/03 12:51:44;;;;;;;4.10;2.70;;;;;;;;;;5001213;28;20296;-79
2023/09/03 12:54:11;;;;;;;2.80;2.60;;;;;;;;;;5024805;28;20194;-80
2023/09/03 12:56:38;;;;;;;3.23;3.03;;;;;;;;;;5020944;28;20206;-80
2023/09/03 12:59:07;;;;;;;2.90;2.70;;;;;;;;;;5035158;28;20193;-78
2023/09/03 13:01:35;;;;;;;2.70;2.50;;;;;;;;;;5034071;28;20213;-80
2023/09/03 13:04:01;;;;;;;3.13;2.93;;;;;;;;;;5031161;28;20443;-81
2023/09/03 13:06:28;;;;;;;3.10;2.80;;;;;;;;;;5036847;28;20193;-79
2023/09/03 13:08:54;;;;;;;3.10;2.90;;;;;;;;;;5034846;28;20179;-79
2023/09/03 13:11:20;;;;;;;3.43;3.07;;;;;;;;;;5027246;28;20202;-81
2023/09/03 13:13:50;;;;;;;3.30;3.00;;;;;;;;;;5037508;28;20196;-78
2023/09/03 13:16:20;;;;;;;4.13;3.40;;;;;;;;;;5038645;28;20193;-78
2023/09/03 13:18:46;;;;;;;4.20;2.90;;;;;;;;;;5023706;28;20183;-80
2023/09/03 13:21:12;;;;;;;3.00;2.80;;;;;;;;;;5038522;28;20216;-79
2023/09/03 13:23:39;;;;;;;3.30;3.10;;;;;;;;;;5040285;28;20183;-79
2023/09/03 13:26:05;;;;;;;3.70;3.30;;;;;;;;;;5036613;28;20280;-80
2023/09/03 13:28:32;;;;;;;3.20;2.90;;;;;;;;;;5031190;28;20179;-79
2023/09/03 13:31:00;;;;;;;4.17;2.87;;;;;;;;;;5020116;28;20201;-79
2023/09/03 13:33:26;;;;;;;2.73;2.53;;;;;;;;;;5039275;28;20171;-79
2023/09/03 13:35:52;;;;;;;3.20;3.00;;;;;;;;;;5024251;28;20180;-78
2023/09/03 13:38:19;;;;;;;3.10;2.80;;;;;;;;;;5045184;28;20602;-81
2023/09/03 13:40:45;;;;;;;3.33;2.87;;;;;;;;;;5043842;28;20194;-78
2023/09/03 13:43:11;;;;;;;4.90;3.20;;;;;;;;;;5025210;28;20296;-80
2023/09/03 13:45:37;;;;;;;3.37;2.93;;;;;;;;;;5021846;28;20192;-75
2023/09/03 13:48:03;;;;;;;3.20;3.00;;;;;;;;;;5041627;28;20520;-80
2023/09/03 13:50:30;;;;;;;3.30;3.00;;;;;;;;;;5042529;28;20653;-78
2023/09/03 13:52:56;;;;;;;3.43;3.00;;;;;;;;;;5038409;28;20229;-78
2023/09/03 13:55:26;;;;;;;3.13;2.93;;;;;;;;;;5036504;28;20295;-78
2023/09/03 13:57:53;;;;;;;3.57;3.27;;;;;;;;;;5038908;28;20663;-77
2023/09/03 14:00:22;;;;;;;3.60;3.30;;;;;;;;;;5038101;28;20248;-77
2023/09/03 14:02:48;;;;;;;3.10;2.80;;;;;;;;;;5019954;28;20219;-77
2023/09/03 14:05:15;;;;;;;3.03;2.83;;;;;;;;;;5037905;28;20588;-79
2023/09/03 14:07:41;;;;;;;2.80;2.60;;;;;;;;;;5035824;28;20184;-78
2023/09/03 14:10:07;;;;;;;3.13;2.93;;;;;;;;;;5035996;28;20679;-78
2023/09/03 14:12:34;;;;;;;4.30;3.33;;;;;;;;;;5025128;28;20207;-79
2023/09/03 14:15:00;;;;;;;3.10;2.87;;;;;;;;;;5028056;28;20191;-78
2023/09/03 14:17:26;;;;;;;3.17;2.97;;;;;;;;;;5018422;28;20346;-78
2023/09/03 14:19:52;;;;;;;3.70;3.23;;;;;;;;;;5023198;28;20195;-79
2023/09/03 14:22:18;;;;;;;3.40;3.10;;;;;;;;;;5020810;28;20227;-78
2023/09/03 14:24:45;;;;;;;3.17;2.97;;;;;;;;;;5030620;28;20650;-78
2023/09/03 14:27:11;;;;;;;3.20;3.00;;;;;;;;;;5023025;28;20228;-79
2023/09/03 14:29:38;;;;;;;3.70;3.40;;;;;;;;;;5017637;28;20176;-79
2023/09/03 14:32:04;;;;;;;3.43;3.17;;;;;;;;;;5025754;28;20694;-78
2023/09/03 14:34:31;;;;;;;3.20;3.00;;;;;;;;;;5006762;28;20185;-78
2023/09/03 14:36:57;;;;;;;3.20;2.90;;;;;;;;;;5027669;28;20242;-78
2023/09/03 14:39:23;;;;;;;3.20;2.90;;;;;;;;;;5027736;28;20190;-78
2023/09/03 14:41:49;;;;;;;3.27;2.80;;;;;;;;;;5032546;28;20351;-77
2023/09/03 14:44:15;;;;;;;3.73;2.90;;;;;;;;;;5023835;28;20182;-77
2023/09/03 14:46:42;;;;;;;2.77;2.50;;;;;;;;;;5027594;28;20650;-77